sensor_id;sensor_type;location;lat;lon;timestamp;temperature;humidity
19870;DHT22;10097;50.862;4.696;2024-03-29T00:00:42;10.60;99.90
19870;DHT22;10097;50.862;4.696;2024-03-29T00:03:09;10.60;99.90
19870;DHT22;10097;50.862;4.696;2024-03-29T00:05:36;10.60;99.90
19870;DHT22;10097;50.862;4.696;2024-03-29T00:08:02;10.60;99.90
19870;DHT22;10097;50.862;4.696;2024-03-29T00:10:28;10.60;99.90
19870;DHT22;10097;50.862;4.696;2024-03-29T00:12:54;10.60;99.90
19870;DHT22;10097;50.862;4.696;2024-03-29T00:15:20;10.60;99.90
19870;DHT22;10097;50.862;4.696;2024-03-29T00:17:46;10.60;99.90
19870;DHT22;10097;50.862;4.696;2024-03-29T00:20:12;10.60;99.90
19870;DHT22;10097;50.862;4.696;2024-03-29T00:22:38;10.70;99.90
19870;DHT22;10097;50.862;4.696;2024-03-29T00:25:04;10.70;99.90
19870;DHT22;10097;50.862;4.696;2024-03-29T00:27:30;10.80;99.90
19870;DHT22;10097;50.862;4.696;2024-03-29T00:29:56;10.80;99.90
19870;DHT22;10097;50.862;4.696;2024-03-29T00:32:22;10.80;99.90
19870;DHT22;10097;50.862;4.696;2024-03-29T00:34:51;10.90;99.90
19870;DHT22;10097;50.862;4.696;2024-03-29T00:37:18;10.90;99.90
19870;DHT22;10097;50.862;4.696;2024-03-29T00:39:44;11.00;99.90
19870;DHT22;10097;50.862;4.696;2024-03-29T00:42:10;10.90;99.90
19870;DHT22;10097;50.862;4.696;2024-03-29T00:44:44;10.90;99.90
19870;DHT22;10097;50.862;4.696;2024-03-29T00:47:10;10.90;99.90
19870;DHT22;10097;50.862;4.696;2024-03-29T00:49:35;11.00;99.90
19870;DHT22;10097;50.862;4.696;2024-03-29T00:52:02;11.00;99.90
19870;DHT22;10097;50.862;4.696;2024-03-29T00:54:29;11.10;99.90
19870;DHT22;10097;50.862;4.696;2024-03-29T00:56:54;11.10;99.90
19870;DHT22;10097;50.862;4.696;2024-03-29T00:59:20;11.10;99.90
19870;DHT22;10097;50.862;4.696;2024-03-29T01:01:46;11.30;99.90
19870;DHT22;10097;50.862;4.696;2024-03-29T01:04:12;11.20;99.90
19870;DHT22;10097;50.862;4.696;2024-03-29T01:06:38;11.20;99.90
19870;DHT22;10097;50.862;4.696;2024-03-29T01:09:04;11.20;99.90
19870;DHT22;10097;50.862;4.696;2024-03-29T01:11:30;11.20;99.90
19870;DHT22;10097;50.862;4.696;2024-03-29T01:13:56;11.20;99.90
19870;DHT22;10097;50.862;4.696;2024-03-29T01:16:22;11.20;99.90
19870;DHT22;10097;50.862;4.696;2024-03-29T01:18:48;11.20;99.90
19870;DHT22;10097;50.862;4.696;2024-03-29T01:21:14;11.20;99.90
19870;DHT22;10097;50.862;4.696;2024-03-29T01:23:40;11.30;99.90
19870;DHT22;10097;50.862;4.696;2024-03-29T01:26:06;11.30;99.90
19870;DHT22;10097;50.862;4.696;2024-03-29T01:28:32;11.30;99.90
19870;DHT22;10097;50.862;4.696;2024-03-29T01:30:58;11.30;99.90
19870;DHT22;10097;50.862;4.696;2024-03-29T01:33:25;11.30;99.90
19870;DHT22;10097;50.862;4.696;2024-03-29T01:35:51;11.30;99.90
19870;DHT22;10097;50.862;4.696;2024-03-29T01:38:16;11.20;99.90
19870;DHT22;10097;50.862;4.696;2024-03-29T01:40:42;11.20;99.90
19870;DHT22;10097;50.862;4.696;2024-03-29T01:43:08;11.30;99.90
19870;DHT22;10097;50.862;4.696;2024-03-29T01:45:41;11.30;99.90
19870;DHT22;10097;50.862;4.696;2024-03-29T01:48:09;11.20;99.90
19870;DHT22;10097;50.862;4.696;2024-03-29T01:50:35;11.10;99.90
19870;DHT22;10097;50.862;4.696;2024-03-29T01:53:02;11.10;99.90
19870;DHT22;10097;50.862;4.696;2024-03-29T01:55:29;11.10;99.90
19870;DHT22;10097;50.862;4.696;2024-03-29T01:57:56;11.00;99.90
19870;DHT22;10097;50.862;4.696;2024-03-29T02:00:22;11.00;99.90
19870;DHT22;10097;50.862;4.696;2024-03-29T02:02:48;10.90;99.90
19870;DHT22;10097;50.862;4.696;2024-03-29T02:05:14;10.80;99.90
19870;DHT22;10097;50.862;4.696;2024-03-29T02:07:40;10.80;99.90
19870;DHT22;10097;50.862;4.696;2024-03-29T02:10:10;10.70;99.90
19870;DHT22;10097;50.862;4.696;2024-03-29T02:12:38;10.50;99.90
19870;DHT22;10097;50.862;4.696;2024-03-29T02:15:04;10.50;99.90
19870;DHT22;10097;50.862;4.696;2024-03-29T02:17:31;10.50;99.90
19870;DHT22;10097;50.862;4.696;2024-03-29T02:19:57;10.40;99.90
19870;DHT22;10097;50.862;4.696;2024-03-29T02:22:24;10.40;99.90
19870;DHT22;10097;50.862;4.696;2024-03-29T02:24:51;10.40;99.90
19870;DHT22;10097;50.862;4.696;2024-03-29T02:27:17;10.20;99.90
19870;DHT22;10097;50.862;4.696;2024-03-29T02:29:42;10.00;99.90
19870;DHT22;10097;50.862;4.696;2024-03-29T02:32:08;10.00;99.90
19870;DHT22;10097;50.862;4.696;2024-03-29T02:34:34;10.00;99.90
19870;DHT22;10097;50.862;4.696;2024-03-29T02:37:00;9.90;99.90
19870;DHT22;10097;50.862;4.696;2024-03-29T02:39:26;9.80;99.90
19870;DHT22;10097;50.862;4.696;2024-03-29T02:41:52;9.80;99.90
19870;DHT22;10097;50.862;4.696;2024-03-29T02:44:17;9.70;99.90
19870;DHT22;10097;50.862;4.696;2024-03-29T02:46:43;9.80;99.90
19870;DHT22;10097;50.862;4.696;2024-03-29T02:49:09;9.80;99.90
19870;DHT22;10097;50.862;4.696;2024-03-29T02:51:35;9.70;99.90
19870;DHT22;10097;50.862;4.696;2024-03-29T02:54:01;9.60;99.90
19870;DHT22;10097;50.862;4.696;2024-03-29T02:56:27;9.60;99.90
19870;DHT22;10097;50.862;4.696;2024-03-29T02:58:53;9.60;99.90
19870;DHT22;10097;50.862;4.696;2024-03-29T03:01:18;9.50;99.90
19870;DHT22;10097;50.862;4.696;2024-03-29T03:03:44;9.50;99.90
19870;DHT22;10097;50.862;4.696;2024-03-29T03:06:10;9.40;99.90
19870;DHT22;10097;50.862;4.696;2024-03-29T03:08:36;9.30;99.90
19870;DHT22;10097;50.862;4.696;2024-03-29T03:11:20;9.30;99.90
19870;DHT22;10097;50.862;4.696;2024-03-29T03:13:45;9.30;99.90
19870;DHT22;10097;50.862;4.696;2024-03-29T03:16:11;9.10;99.90
19870;DHT22;10097;50.862;4.696;2024-03-29T03:18:37;9.10;99.90
19870;DHT22;10097;50.862;4.696;2024-03-29T03:21:02;9.00;99.90
19870;DHT22;10097;50.862;4.696;2024-03-29T03:23:28;9.10;99.90
19870;DHT22;10097;50.862;4.696;2024-03-29T03:25:58;9.10;99.90
19870;DHT22;10097;50.862;4.696;2024-03-29T03:28:24;9.20;99.90
19870;DHT22;10097;50.862;4.696;2024-03-29T03:30:51;9.10;99.90
19870;DHT22;10097;50.862;4.696;2024-03-29T03:33:17;9.10;99.90
19870;DHT22;10097;50.862;4.696;2024-03-29T03:35:43;9.10;99.90
19870;DHT22;10097;50.862;4.696;2024-03-29T03:38:09;9.10;99.90
19870;DHT22;10097;50.862;4.696;2024-03-29T03:40:35;9.10;99.90
19870;DHT22;10097;50.862;4.696;2024-03-29T03:43:05;9.10;99.90
19870;DHT22;10097;50.862;4.696;2024-03-29T03:45:34;9.10;99.90
19870;DHT22;10097;50.862;4.696;2024-03-29T03:48:02;9.00;99.90
19870;DHT22;10097;50.862;4.696;2024-03-29T03:50:28;9.00;99.90
19870;DHT22;10097;50.862;4.696;2024-03-29T03:52:53;9.00;99.90
19870;DHT22;10097;50.862;4.696;2024-03-29T03:55:19;9.00;99.90
19870;DHT22;10097;50.862;4.696;2024-03-29T03:57:45;9.10;99.90
19870;DHT22;10097;50.862;4.696;2024-03-29T04:00:11;9.10;99.90
19870;DHT22;10097;50.862;4.696;2024-03-29T04:02:37;9.10;99.90
19870;DHT22;10097;50.862;4.696;2024-03-29T04:05:03;9.10;99.90
19870;DHT22;10097;50.862;4.696;2024-03-29T04:07:28;9.00;99.90
19870;DHT22;10097;50.862;4.696;2024-03-29T04:09:54;9.10;99.90
19870;DHT22;10097;50.862;4.696;2024-03-29T04:12:20;9.00;99.90
19870;DHT22;10097;50.862;4.696;2024-03-29T04:14:46;9.00;99.90
19870;DHT22;10097;50.862;4.696;2024-03-29T04:17:11;9.00;99.90
19870;DHT22;10097;50.862;4.696;2024-03-29T04:19:37;9.10;99.90
19870;DHT22;10097;50.862;4.696;2024-03-29T04:22:03;9.20;99.90
19870;DHT22;10097;50.862;4.696;2024-03-29T04:24:29;9.20;99.90
19870;DHT22;10097;50.862;4.696;2024-03-29T04:26:55;9.20;99.90
19870;DHT22;10097;50.862;4.696;2024-03-29T04:29:20;9.30;99.90
19870;DHT22;10097;50.862;4.696;2024-03-29T04:31:46;9.30;99.90
19870;DHT22;10097;50.862;4.696;2024-03-29T04:34:12;9.30;99.90
19870;DHT22;10097;50.862;4.696;2024-03-29T04:36:37;9.30;99.90
19870;DHT22;10097;50.862;4.696;2024-03-29T04:39:04;9.20;99.90
19870;DHT22;10097;50.862;4.696;2024-03-29T04:41:30;9.20;99.90
19870;DHT22;10097;50.862;4.696;2024-03-29T04:44:02;9.30;99.90
19870;DHT22;10097;50.862;4.696;2024-03-29T04:46:30;9.30;99.90
19870;DHT22;10097;50.862;4.696;2024-03-29T04:48:57;9.30;99.90
19870;DHT22;10097;50.862;4.696;2024-03-29T04:51:23;9.40;99.90
19870;DHT22;10097;50.862;4.696;2024-03-29T04:53:48;9.40;99.90
19870;DHT22;10097;50.862;4.696;2024-03-29T04:56:14;9.40;99.90
19870;DHT22;10097;50.862;4.696;2024-03-29T04:58:40;9.50;99.90
19870;DHT22;10097;50.862;4.696;2024-03-29T05:01:06;9.40;99.90
19870;DHT22;10097;50.862;4.696;2024-03-29T05:03:32;9.40;99.90
19870;DHT22;10097;50.862;4.696;2024-03-29T05:05:58;9.40;99.90
19870;DHT22;10097;50.862;4.696;2024-03-29T05:08:24;9.40;99.90
19870;DHT22;10097;50.862;4.696;2024-03-29T05:10:50;9.40;99.90
19870;DHT22;10097;50.862;4.696;2024-03-29T05:13:16;9.40;99.90
19870;DHT22;10097;50.862;4.696;2024-03-29T05:15:43;9.40;99.90
19870;DHT22;10097;50.862;4.696;2024-03-29T05:18:08;9.40;99.90
19870;DHT22;10097;50.862;4.696;2024-03-29T05:20:34;9.40;99.90
19870;DHT22;10097;50.862;4.696;2024-03-29T05:23:00;9.40;99.90
19870;DHT22;10097;50.862;4.696;2024-03-29T05:25:26;9.40;99.90
19870;DHT22;10097;50.862;4.696;2024-03-29T05:27:53;9.30;99.90
19870;DHT22;10097;50.862;4.696;2024-03-29T05:30:18;9.40;99.90
19870;DHT22;10097;50.862;4.696;2024-03-29T05:32:44;9.40;99.90
19870;DHT22;10097;50.862;4.696;2024-03-29T05:35:10;9.40;99.90
19870;DHT22;10097;50.862;4.696;2024-03-29T05:37:36;9.40;99.90
19870;DHT22;10097;50.862;4.696;2024-03-29T05:40:02;9.40;99.90
19870;DHT22;10097;50.862;4.696;2024-03-29T05:42:31;9.30;99.90
19870;DHT22;10097;50.862;4.696;2024-03-29T05:44:58;9.40;99.90
19870;DHT22;10097;50.862;4.696;2024-03-29T05:47:24;9.50;99.90
19870;DHT22;10097;50.862;4.696;2024-03-29T05:49:50;9.50;99.90
19870;DHT22;10097;50.862;4.696;2024-03-29T05:52:16;9.50;99.90
19870;DHT22;10097;50.862;4.696;2024-03-29T05:54:43;9.50;99.90
19870;DHT22;10097;50.862;4.696;2024-03-29T05:57:10;9.50;99.90
19870;DHT22;10097;50.862;4.696;2024-03-29T05:59:36;9.50;99.90
19870;DHT22;10097;50.862;4.696;2024-03-29T06:02:02;9.50;99.90
19870;DHT22;10097;50.862;4.696;2024-03-29T06:04:28;9.50;99.90
19870;DHT22;10097;50.862;4.696;2024-03-29T06:07:04;9.60;99.90
19870;DHT22;10097;50.862;4.696;2024-03-29T06:09:30;9.60;99.90
19870;DHT22;10097;50.862;4.696;2024-03-29T06:11:57;9.60;99.90
19870;DHT22;10097;50.862;4.696;2024-03-29T06:14:26;9.70;99.90
19870;DHT22;10097;50.862;4.696;2024-03-29T06:17:10;9.70;99.90
19870;DHT22;10097;50.862;4.696;2024-03-29T06:19:52;9.70;99.90
19870;DHT22;10097;50.862;4.696;2024-03-29T06:22:21;9.80;99.90
19870;DHT22;10097;50.862;4.696;2024-03-29T06:24:47;9.80;99.90
19870;DHT22;10097;50.862;4.696;2024-03-29T06:27:14;9.80;99.90
19870;DHT22;10097;50.862;4.696;2024-03-29T06:29:43;9.90;99.90
19870;DHT22;10097;50.862;4.696;2024-03-29T06:32:09;10.00;99.90
19870;DHT22;10097;50.862;4.696;2024-03-29T06:34:34;10.00;99.90
19870;DHT22;10097;50.862;4.696;2024-03-29T06:37:00;10.10;99.90
19870;DHT22;10097;50.862;4.696;2024-03-29T06:39:26;10.00;99.90
19870;DHT22;10097;50.862;4.696;2024-03-29T06:41:52;10.10;99.90
19870;DHT22;10097;50.862;4.696;2024-03-29T06:44:18;10.10;99.90
19870;DHT22;10097;50.862;4.696;2024-03-29T06:46:43;10.10;99.90
19870;DHT22;10097;50.862;4.696;2024-03-29T06:49:09;10.20;99.90
19870;DHT22;10097;50.862;4.696;2024-03-29T06:51:35;10.30;99.90
19870;DHT22;10097;50.862;4.696;2024-03-29T06:54:01;10.30;99.90
19870;DHT22;10097;50.862;4.696;2024-03-29T06:56:26;10.30;99.90
19870;DHT22;10097;50.862;4.696;2024-03-29T06:58:52;10.30;99.90
19870;DHT22;10097;50.862;4.696;2024-03-29T07:01:18;10.40;99.90
19870;DHT22;10097;50.862;4.696;2024-03-29T07:03:43;10.50;99.90
19870;DHT22;10097;50.862;4.696;2024-03-29T07:06:10;10.60;99.90
19870;DHT22;10097;50.862;4.696;2024-03-29T07:08:35;10.70;99.90
19870;DHT22;10097;50.862;4.696;2024-03-29T07:11:02;10.80;99.90
19870;DHT22;10097;50.862;4.696;2024-03-29T07:13:29;11.00;99.90
19870;DHT22;10097;50.862;4.696;2024-03-29T07:15:59;11.10;99.90
19870;DHT22;10097;50.862;4.696;2024-03-29T07:18:25;11.30;99.90
19870;DHT22;10097;50.862;4.696;2024-03-29T07:20:51;11.40;99.90
19870;DHT22;10097;50.862;4.696;2024-03-29T07:23:17;11.40;99.90
19870;DHT22;10097;50.862;4.696;2024-03-29T07:25:56;11.30;99.90
19870;DHT22;10097;50.862;4.696;2024-03-29T07:28:22;11.20;99.90
19870;DHT22;10097;50.862;4.696;2024-03-29T07:30:48;11.10;99.90
19870;DHT22;10097;50.862;4.696;2024-03-29T07:33:15;11.00;99.90
19870;DHT22;10097;50.862;4.696;2024-03-29T07:35:41;11.20;99.90
19870;DHT22;10097;50.862;4.696;2024-03-29T07:38:07;11.30;99.90
19870;DHT22;10097;50.862;4.696;2024-03-29T07:40:33;11.50;99.90
19870;DHT22;10097;50.862;4.696;2024-03-29T07:43:15;11.50;99.90
19870;DHT22;10097;50.862;4.696;2024-03-29T07:45:42;11.50;99.90
19870;DHT22;10097;50.862;4.696;2024-03-29T07:48:17;11.60;99.90
19870;DHT22;10097;50.862;4.696;2024-03-29T07:50:44;11.60;99.90
19870;DHT22;10097;50.862;4.696;2024-03-29T07:53:10;11.60;99.90
19870;DHT22;10097;50.862;4.696;2024-03-29T07:55:38;11.60;99.90
19870;DHT22;10097;50.862;4.696;2024-03-29T07:58:04;11.70;99.90
19870;DHT22;10097;50.862;4.696;2024-03-29T08:00:34;11.70;99.90
19870;DHT22;10097;50.862;4.696;2024-03-29T08:03:00;11.70;99.90
19870;DHT22;10097;50.862;4.696;2024-03-29T08:05:27;11.80;99.90
19870;DHT22;10097;50.862;4.696;2024-03-29T08:07:53;11.90;99.90
19870;DHT22;10097;50.862;4.696;2024-03-29T08:10:20;12.00;99.90
19870;DHT22;10097;50.862;4.696;2024-03-29T08:12:46;12.00;99.90
19870;DHT22;10097;50.862;4.696;2024-03-29T08:15:11;12.00;99.90
19870;DHT22;10097;50.862;4.696;2024-03-29T08:17:37;12.10;99.90
19870;DHT22;10097;50.862;4.696;2024-03-29T08:20:04;12.20;99.90
19870;DHT22;10097;50.862;4.696;2024-03-29T08:22:30;12.20;99.90
19870;DHT22;10097;50.862;4.696;2024-03-29T08:24:59;12.30;99.90
19870;DHT22;10097;50.862;4.696;2024-03-29T08:27:25;12.40;99.90
19870;DHT22;10097;50.862;4.696;2024-03-29T08:29:51;12.50;99.90
19870;DHT22;10097;50.862;4.696;2024-03-29T08:32:17;12.60;99.90
19870;DHT22;10097;50.862;4.696;2024-03-29T08:34:43;12.80;99.90
19870;DHT22;10097;50.862;4.696;2024-03-29T08:37:09;12.90;99.90
19870;DHT22;10097;50.862;4.696;2024-03-29T08:39:35;13.10;99.90
19870;DHT22;10097;50.862;4.696;2024-03-29T08:42:06;13.10;99.90
19870;DHT22;10097;50.862;4.696;2024-03-29T08:44:34;13.20;99.90
19870;DHT22;10097;50.862;4.696;2024-03-29T08:47:01;13.20;99.90
19870;DHT22;10097;50.862;4.696;2024-03-29T08:49:30;13.30;99.90
19870;DHT22;10097;50.862;4.696;2024-03-29T08:51:56;13.30;99.90
19870;DHT22;10097;50.862;4.696;2024-03-29T08:54:22;13.30;99.90
19870;DHT22;10097;50.862;4.696;2024-03-29T08:56:48;13.50;99.90
19870;DHT22;10097;50.862;4.696;2024-03-29T08:59:14;13.70;99.90
19870;DHT22;10097;50.862;4.696;2024-03-29T09:01:43;13.80;99.90
19870;DHT22;10097;50.862;4.696;2024-03-29T09:04:09;13.80;99.90
19870;DHT22;10097;50.862;4.696;2024-03-29T09:06:37;13.70;99.90
19870;DHT22;10097;50.862;4.696;2024-03-29T09:09:04;13.70;99.90
19870;DHT22;10097;50.862;4.696;2024-03-29T09:11:30;13.50;99.90
19870;DHT22;10097;50.862;4.696;2024-03-29T09:13:56;13.30;99.90
19870;DHT22;10097;50.862;4.696;2024-03-29T09:16:24;13.30;99.90
19870;DHT22;10097;50.862;4.696;2024-03-29T09:18:51;13.30;99.90
19870;DHT22;10097;50.862;4.696;2024-03-29T09:21:16;13.30;99.90
19870;DHT22;10097;50.862;4.696;2024-03-29T09:23:42;13.40;99.90
19870;DHT22;10097;50.862;4.696;2024-03-29T09:26:08;13.50;99.90
19870;DHT22;10097;50.862;4.696;2024-03-29T09:28:33;13.60;99.90
19870;DHT22;10097;50.862;4.696;2024-03-29T09:31:02;13.80;99.90
19870;DHT22;10097;50.862;4.696;2024-03-29T09:33:28;14.00;99.90
19870;DHT22;10097;50.862;4.696;2024-03-29T09:35:54;14.10;99.90
19870;DHT22;10097;50.862;4.696;2024-03-29T09:38:21;14.30;99.90
19870;DHT22;10097;50.862;4.696;2024-03-29T09:40:48;14.30;99.90
19870;DHT22;10097;50.862;4.696;2024-03-29T09:43:18;14.70;99.90
19870;DHT22;10097;50.862;4.696;2024-03-29T09:45:44;14.80;99.90
19870;DHT22;10097;50.862;4.696;2024-03-29T09:48:11;14.80;99.90
19870;DHT22;10097;50.862;4.696;2024-03-29T09:50:37;14.60;99.90
19870;DHT22;10097;50.862;4.696;2024-03-29T09:53:06;14.60;99.90
19870;DHT22;10097;50.862;4.696;2024-03-29T09:55:33;14.50;99.90
19870;DHT22;10097;50.862;4.696;2024-03-29T09:58:01;14.30;99.90
19870;DHT22;10097;50.862;4.696;2024-03-29T10:00:28;14.20;99.90
19870;DHT22;10097;50.862;4.696;2024-03-29T10:02:56;14.10;99.90
19870;DHT22;10097;50.862;4.696;2024-03-29T10:05:23;14.30;99.90
19870;DHT22;10097;50.862;4.696;2024-03-29T10:07:49;14.10;99.90
19870;DHT22;10097;50.862;4.696;2024-03-29T10:10:15;14.00;99.90
19870;DHT22;10097;50.862;4.696;2024-03-29T10:12:41;13.80;99.90
19870;DHT22;10097;50.862;4.696;2024-03-29T10:15:07;13.80;99.90
19870;DHT22;10097;50.862;4.696;2024-03-29T10:17:45;13.90;99.90
19870;DHT22;10097;50.862;4.696;2024-03-29T10:20:11;14.00;99.90
19870;DHT22;10097;50.862;4.696;2024-03-29T10:22:42;14.10;99.90
19870;DHT22;10097;50.862;4.696;2024-03-29T10:25:18;14.30;99.90
19870;DHT22;10097;50.862;4.696;2024-03-29T10:27:45;14.40;99.90
19870;DHT22;10097;50.862;4.696;2024-03-29T10:30:11;14.40;99.90
19870;DHT22;10097;50.862;4.696;2024-03-29T10:32:42;14.40;99.90
19870;DHT22;10097;50.862;4.696;2024-03-29T10:35:08;14.70;99.90
19870;DHT22;10097;50.862;4.696;2024-03-29T10:37:35;14.80;99.90
19870;DHT22;10097;50.862;4.696;2024-03-29T10:40:11;15.00;99.90
19870;DHT22;10097;50.862;4.696;2024-03-29T10:42:41;15.00;99.90
19870;DHT22;10097;50.862;4.696;2024-03-29T10:45:07;15.30;99.90
19870;DHT22;10097;50.862;4.696;2024-03-29T10:47:34;15.50;99.90
19870;DHT22;10097;50.862;4.696;2024-03-29T10:49:59;15.70;99.90
19870;DHT22;10097;50.862;4.696;2024-03-29T10:52:26;15.70;99.90
19870;DHT22;10097;50.862;4.696;2024-03-29T10:54:52;15.70;99.90
19870;DHT22;10097;50.862;4.696;2024-03-29T10:57:23;15.50;99.90
19870;DHT22;10097;50.862;4.696;2024-03-29T11:00:11;15.50;99.90
19870;DHT22;10097;50.862;4.696;2024-03-29T11:05:35;15.90;99.90
19870;DHT22;10097;50.862;4.696;2024-03-29T11:08:03;15.90;99.90
19870;DHT22;10097;50.862;4.696;2024-03-29T11:13:12;15.60;99.90
19870;DHT22;10097;50.862;4.696;2024-03-29T11:15:41;15.40;99.90
19870;DHT22;10097;50.862;4.696;2024-03-29T11:18:11;15.50;99.90
19870;DHT22;10097;50.862;4.696;2024-03-29T11:20:37;15.40;99.90
19870;DHT22;10097;50.862;4.696;2024-03-29T11:23:11;15.20;99.90
19870;DHT22;10097;50.862;4.696;2024-03-29T11:25:42;15.10;99.90
19870;DHT22;10097;50.862;4.696;2024-03-29T11:28:09;15.20;99.90
19870;DHT22;10097;50.862;4.696;2024-03-29T11:30:42;15.30;99.90
19870;DHT22;10097;50.862;4.696;2024-03-29T11:33:29;15.50;99.90
19870;DHT22;10097;50.862;4.696;2024-03-29T11:35:56;15.90;99.90
19870;DHT22;10097;50.862;4.696;2024-03-29T11:38:22;16.30;99.90
19870;DHT22;10097;50.862;4.696;2024-03-29T11:41:28;16.50;99.90
19870;DHT22;10097;50.862;4.696;2024-03-29T11:43:50;16.50;99.90
19870;DHT22;10097;50.862;4.696;2024-03-29T11:46:17;16.60;99.90
19870;DHT22;10097;50.862;4.696;2024-03-29T11:48:43;16.80;99.90
19870;DHT22;10097;50.862;4.696;2024-03-29T11:51:15;16.70;99.90
19870;DHT22;10097;50.862;4.696;2024-03-29T11:53:42;16.70;99.90
19870;DHT22;10097;50.862;4.696;2024-03-29T11:56:08;16.40;99.90
19870;DHT22;10097;50.862;4.696;2024-03-29T11:58:34;16.30;99.90
19870;DHT22;10097;50.862;4.696;2024-03-29T12:01:01;16.50;99.90
19870;DHT22;10097;50.862;4.696;2024-03-29T12:03:28;16.40;99.90
19870;DHT22;10097;50.862;4.696;2024-03-29T12:05:56;16.30;99.90
19870;DHT22;10097;50.862;4.696;2024-03-29T12:08:31;16.50;99.90
19870;DHT22;10097;50.862;4.696;2024-03-29T12:11:02;16.60;99.90
19870;DHT22;10097;50.862;4.696;2024-03-29T12:13:28;16.70;99.90
19870;DHT22;10097;50.862;4.696;2024-03-29T12:15:55;17.20;99.90
19870;DHT22;10097;50.862;4.696;2024-03-29T12:18:21;17.50;99.90
19870;DHT22;10097;50.862;4.696;2024-03-29T12:20:48;17.50;99.90
19870;DHT22;10097;50.862;4.696;2024-03-29T12:23:16;17.50;99.90
19870;DHT22;10097;50.862;4.696;2024-03-29T12:25:42;17.70;99.90
19870;DHT22;10097;50.862;4.696;2024-03-29T12:28:10;18.10;99.90
19870;DHT22;10097;50.862;4.696;2024-03-29T12:30:35;18.30;99.90
19870;DHT22;10097;50.862;4.696;2024-03-29T12:33:06;18.30;99.90
19870;DHT22;10097;50.862;4.696;2024-03-29T12:35:33;18.10;99.90
19870;DHT22;10097;50.862;4.696;2024-03-29T12:38:05;18.10;99.90
19870;DHT22;10097;50.862;4.696;2024-03-29T12:40:34;18.40;99.90
19870;DHT22;10097;50.862;4.696;2024-03-29T12:43:07;18.20;99.90
19870;DHT22;10097;50.862;4.696;2024-03-29T12:45:36;18.30;99.90
19870;DHT22;10097;50.862;4.696;2024-03-29T12:48:02;18.60;99.90
19870;DHT22;10097;50.862;4.696;2024-03-29T12:50:30;19.00;99.90
19870;DHT22;10097;50.862;4.696;2024-03-29T12:53:06;18.70;99.90
19870;DHT22;10097;50.862;4.696;2024-03-29T12:55:32;18.70;99.90
19870;DHT22;10097;50.862;4.696;2024-03-29T12:58:02;18.40;99.90
19870;DHT22;10097;50.862;4.696;2024-03-29T13:00:30;18.30;99.90
19870;DHT22;10097;50.862;4.696;2024-03-29T13:02:56;18.00;99.90
19870;DHT22;10097;50.862;4.696;2024-03-29T13:05:22;18.00;99.90
19870;DHT22;10097;50.862;4.696;2024-03-29T13:07:48;18.70;99.90
19870;DHT22;10097;50.862;4.696;2024-03-29T13:10:14;19.00;99.90
19870;DHT22;10097;50.862;4.696;2024-03-29T13:12:46;18.60;99.90
19870;DHT22;10097;50.862;4.696;2024-03-29T13:15:22;18.40;99.90
19870;DHT22;10097;50.862;4.696;2024-03-29T13:17:51;18.40;99.90
19870;DHT22;10097;50.862;4.696;2024-03-29T13:20:18;18.70;99.90
19870;DHT22;10097;50.862;4.696;2024-03-29T13:22:44;19.30;99.90
19870;DHT22;10097;50.862;4.696;2024-03-29T13:25:21;19.20;99.90
19870;DHT22;10097;50.862;4.696;2024-03-29T13:27:49;19.00;99.90
19870;DHT22;10097;50.862;4.696;2024-03-29T13:30:21;18.90;99.90
19870;DHT22;10097;50.862;4.696;2024-03-29T13:32:48;18.60;99.90
19870;DHT22;10097;50.862;4.696;2024-03-29T13:35:14;18.80;99.90
19870;DHT22;10097;50.862;4.696;2024-03-29T13:37:41;19.00;99.90
19870;DHT22;10097;50.862;4.696;2024-03-29T13:40:09;18.80;99.90
19870;DHT22;10097;50.862;4.696;2024-03-29T13:42:36;19.00;99.90
19870;DHT22;10097;50.862;4.696;2024-03-29T13:45:04;19.20;99.90
19870;DHT22;10097;50.862;4.696;2024-03-29T13:47:32;19.30;99.90
19870;DHT22;10097;50.862;4.696;2024-03-29T13:49:58;19.20;99.90
19870;DHT22;10097;50.862;4.696;2024-03-29T13:52:24;19.20;99.90
19870;DHT22;10097;50.862;4.696;2024-03-29T13:54:50;18.80;99.90
19870;DHT22;10097;50.862;4.696;2024-03-29T13:57:19;18.70;99.90
19870;DHT22;10097;50.862;4.696;2024-03-29T13:59:45;18.40;99.90
19870;DHT22;10097;50.862;4.696;2024-03-29T14:02:15;18.30;99.90
19870;DHT22;10097;50.862;4.696;2024-03-29T14:04:42;18.50;99.90
19870;DHT22;10097;50.862;4.696;2024-03-29T14:07:09;18.70;99.90
19870;DHT22;10097;50.862;4.696;2024-03-29T14:09:42;19.00;99.90
19870;DHT22;10097;50.862;4.696;2024-03-29T14:12:08;19.20;99.90
19870;DHT22;10097;50.862;4.696;2024-03-29T14:14:34;19.30;99.90
19870;DHT22;10097;50.862;4.696;2024-03-29T14:17:00;18.90;99.90
19870;DHT22;10097;50.862;4.696;2024-03-29T14:19:35;18.80;99.90
19870;DHT22;10097;50.862;4.696;2024-03-29T14:22:01;18.70;99.90
19870;DHT22;10097;50.862;4.696;2024-03-29T14:24:27;18.50;99.90
19870;DHT22;10097;50.862;4.696;2024-03-29T14:26:53;18.50;99.90
19870;DHT22;10097;50.862;4.696;2024-03-29T14:29:19;18.20;99.90
19870;DHT22;10097;50.862;4.696;2024-03-29T14:31:49;18.00;99.90
19870;DHT22;10097;50.862;4.696;2024-03-29T14:34:15;18.00;99.90
19870;DHT22;10097;50.862;4.696;2024-03-29T14:36:41;18.00;99.90
19870;DHT22;10097;50.862;4.696;2024-03-29T14:39:07;18.10;99.90
19870;DHT22;10097;50.862;4.696;2024-03-29T14:41:32;18.10;99.90
19870;DHT22;10097;50.862;4.696;2024-03-29T14:44:02;18.10;99.90
19870;DHT22;10097;50.862;4.696;2024-03-29T14:46:28;18.20;99.90
19870;DHT22;10097;50.862;4.696;2024-03-29T14:48:54;18.10;99.90
19870;DHT22;10097;50.862;4.696;2024-03-29T14:51:19;18.00;99.90
19870;DHT22;10097;50.862;4.696;2024-03-29T14:53:46;18.30;99.90
19870;DHT22;10097;50.862;4.696;2024-03-29T14:56:18;18.60;99.90
19870;DHT22;10097;50.862;4.696;2024-03-29T14:58:43;18.80;99.90
19870;DHT22;10097;50.862;4.696;2024-03-29T15:01:10;18.80;99.90
19870;DHT22;10097;50.862;4.696;2024-03-29T15:03:36;19.10;99.90
19870;DHT22;10097;50.862;4.696;2024-03-29T15:06:01;19.50;99.90
19870;DHT22;10097;50.862;4.696;2024-03-29T15:08:27;20.30;99.90
19870;DHT22;10097;50.862;4.696;2024-03-29T15:11:02;20.90;99.90
19870;DHT22;10097;50.862;4.696;2024-03-29T15:13:29;21.50;99.90
19870;DHT22;10097;50.862;4.696;2024-03-29T15:15:59;22.10;99.90
19870;DHT22;10097;50.862;4.696;2024-03-29T15:18:25;21.90;99.90
19870;DHT22;10097;50.862;4.696;2024-03-29T15:20:58;21.70;99.90
19870;DHT22;10097;50.862;4.696;2024-03-29T15:23:27;21.10;99.90
19870;DHT22;10097;50.862;4.696;2024-03-29T15:25:55;20.90;99.90
19870;DHT22;10097;50.862;4.696;2024-03-29T15:28:22;20.70;99.90
19870;DHT22;10097;50.862;4.696;2024-03-29T15:31:14;20.20;99.90
19870;DHT22;10097;50.862;4.696;2024-03-29T15:33:42;20.10;99.90
19870;DHT22;10097;50.862;4.696;2024-03-29T15:36:09;19.60;99.90
19870;DHT22;10097;50.862;4.696;2024-03-29T15:38:36;19.60;99.90
19870;DHT22;10097;50.862;4.696;2024-03-29T15:41:02;19.40;99.90